Time;durP1;ratioP1;P1;durP2;ratioP2;P2;SDS_P1;SDS_P2;PMS_P1;PMS_P2;Temp;Humidity;BMP_temperature;BMP_pressure;BME280_temperature;BME280_humidity;BME280_pressure;Samples;Min_cycle;Max_cycle;Signal;HPM_P1;HPM_P2
2021/08/07 00:01:28;;;;;;;;;;;;;;;18.50;66.81;99292.00;10357449;28;19964;-57
2021/08/07 00:06:29;;;;;;;;;;;;;;;18.51;67.07;99295.53;10355001;28;20000;-56
2021/08/07 00:11:31;;;;;;;;;;;;;;;18.53;67.22;99298.88;10360367;28;19925;-54
2021/08/07 00:16:32;;;;;;;;;;;;;;;18.52;67.04;99289.94;10354748;28;19956;-63
2021/08/07 00:21:33;;;;;;;;;;;;;;;18.54;67.08;99281.69;10341731;28;19929;-56
2021/08/07 00:26:35;;;;;;;;;;;;;;;18.54;67.07;99282.50;10355610;28;19929;-54
2021/08/07 00:31:36;;;;;;;;;;;;;;;18.57;67.07;99286.69;10359284;28;20567;-55
2021/08/07 00:36:38;;;;;;;;;;;;;;;18.61;67.40;99282.53;10353058;28;20004;-55
2021/08/07 00:41:39;;;;;;;;;;;;;;;18.58;67.41;99274.03;10340050;28;19999;-54
2021/08/07 00:46:40;;;;;;;;;;;;;;;18.58;67.62;99272.16;10365178;28;19929;-55
2021/08/07 00:51:42;;;;;;;;;;;;;;;18.51;67.72;99277.53;10349226;28;19976;-55
2021/08/07 00:56:44;;;;;;;;;;;;;;;18.48;67.92;99271.69;10371534;28;20008;-55
2021/08/07 01:01:48;;;;;;;;;;;;;;;18.46;67.93;99279.16;10372824;28;19925;-54
2021/08/07 01:06:53;;;;;;;;;;;;;;;18.42;68.09;99259.00;10376588;28;19931;-54
2021/08/07 01:12:00;;;;;;;;;;;;;;;18.43;68.21;99261.50;10367438;28;20012;-54
2021/08/07 01:17:08;;;;;;;;;;;;;;;18.47;68.18;99251.19;10366872;28;20013;-55
2021/08/07 01:22:10;;;;;;;;;;;;;;;18.44;68.39;99248.88;10366789;28;19972;-55
2021/08/07 01:27:36;;;;;;;;;;;;;;;18.35;68.69;99243.63;10369437;28;20004;-55
2021/08/07 01:32:37;;;;;;;;;;;;;;;18.36;68.71;99244.50;10361533;28;20641;-55
2021/08/07 01:37:40;;;;;;;;;;;;;;;18.29;68.96;99251.69;10366491;28;20071;-56
2021/08/07 01:42:41;;;;;;;;;;;;;;;18.20;69.63;99251.03;10365858;28;19967;-55
2021/08/07 01:47:48;;;;;;;;;;;;;;;18.22;69.67;99250.81;10346937;28;19968;-62
2021/08/07 01:52:52;;;;;;;;;;;;;;;18.18;69.98;99255.78;10366748;28;19960;-55
2021/08/07 01:58:06;;;;;;;;;;;;;;;18.11;70.26;99249.50;10362995;28;20617;-58
2021/08/07 02:03:11;;;;;;;;;;;;;;;18.10;70.38;99245.16;10365618;28;20464;-54
2021/08/07 02:08:14;;;;;;;;;;;;;;;18.12;70.41;99240.38;10352228;28;19933;-56
2021/08/07 02:13:17;;;;;;;;;;;;;;;18.14;70.21;99238.34;10370159;28;20047;-55
2021/08/07 02:18:22;;;;;;;;;;;;;;;18.11;70.23;99239.56;10366914;28;20453;-56
2021/08/07 02:23:24;;;;;;;;;;;;;;;18.14;70.35;99231.09;10349173;28;20359;-55
2021/08/07 02:28:26;;;;;;;;;;;;;;;18.17;70.42;99227.19;10371947;28;19928;-55
2021/08/07 02:33:28;;;;;;;;;;;;;;;18.15;70.35;99218.44;10366614;28;20347;-55
2021/08/07 02:38:31;;;;;;;;;;;;;;;18.14;70.29;99206.03;10361511;28;19968;-55
2021/08/07 02:43:33;;;;;;;;;;;;;;;18.07;70.60;99202.47;10363279;28;19932;-54
2021/08/07 02:48:35;;;;;;;;;;;;;;;18.03;70.90;99210.13;10362855;28;19925;-54
2021/08/07 02:53:37;;;;;;;;;;;;;;;18.07;70.62;99218.63;10356892;28;20079;-55
2021/08/07 02:58:38;;;;;;;;;;;;;;;18.08;70.87;99209.53;10365278;28;20378;-54
2021/08/07 03:03:40;;;;;;;;;;;;;;;18.05;70.83;99201.84;10359368;28;19961;-55
2021/08/07 03:08:41;;;;;;;;;;;;;;;18.04;70.93;99205.56;10366980;28;20385;-55
2021/08/07 03:13:42;;;;;;;;;;;;;;;17.99;70.98;99203.44;10363535;28;19929;-55
2021/08/07 03:18:44;;;;;;;;;;;;;;;17.97;71.29;99211.72;10356519;28;19933;-60
2021/08/07 03:23:45;;;;;;;;;;;;;;;17.96;71.46;99193.91;10351955;28;19925;-55
2021/08/07 03:28:46;;;;;;;;;;;;;;;17.97;71.42;99198.28;10359301;28;19983;-55
2021/08/07 03:33:48;;;;;;;;;;;;;;;17.96;71.61;99198.47;10348373;28;19987;-54
2021/08/07 03:38:49;;;;;;;;;;;;;;;17.95;71.39;99208.38;10356120;28;19962;-55
2021/08/07 03:43:50;;;;;;;;;;;;;;;17.95;71.71;99208.38;10345941;28;19983;-55
2021/08/07 03:48:52;;;;;;;;;;;;;;;17.96;71.55;99209.22;10361083;28;20149;-56
2021/08/07 03:53:53;;;;;;;;;;;;;;;17.97;71.87;99200.97;10350710;28;19957;-55
2021/08/07 03:58:54;;;;;;;;;;;;;;;17.98;71.86;99196.41;10348826;28;20016;-56
2021/08/07 04:03:58;;;;;;;;;;;;;;;17.99;71.81;99188.13;10357475;28;20656;-56
2021/08/07 04:09:02;;;;;;;;;;;;;;;18.02;71.82;99195.81;10357687;28;19925;-54
2021/08/07 04:14:03;;;;;;;;;;;;;;;18.04;71.91;99189.41;10365336;28;20019;-55
2021/08/07 04:19:05;;;;;;;;;;;;;;;18.05;71.74;99188.38;10362464;28;20015;-56
2021/08/07 04:24:06;;;;;;;;;;;;;;;18.09;71.74;99178.84;10353444;28;19961;-55
2021/08/07 04:29:07;;;;;;;;;;;;;;;18.07;71.70;99183.63;10350002;28;19966;-54
2021/08/07 04:34:09;;;;;;;;;;;;;;;18.09;72.07;99181.53;10368090;28;20047;-57
2021/08/07 04:39:11;;;;;;;;;;;;;;;18.12;72.17;99186.53;10355237;28;20019;-55
2021/08/07 04:44:12;;;;;;;;;;;;;;;18.15;71.81;99176.22;10356659;28;20345;-55
2021/08/07 04:49:13;;;;;;;;;;;;;;;18.18;71.76;99169.59;10353929;28;20379;-55
2021/08/07 04:54:15;;;;;;;;;;;;;;;18.16;71.74;99158.19;10363153;28;19979;-56
2021/08/07 04:59:16;;;;;;;;;;;;;;;18.21;71.77;99171.91;10358270;28;20012;-56
2021/08/07 05:04:17;;;;;;;;;;;;;;;18.23;72.08;99167.13;10363901;28;19968;-55
2021/08/07 05:09:19;;;;;;;;;;;;;;;18.25;72.04;99170.44;10361677;28;20543;-55
2021/08/07 05:14:20;;;;;;;;;;;;;;;18.24;72.06;99158.03;10354844;28;19937;-55
2021/08/07 05:19:22;;;;;;;;;;;;;;;18.28;71.93;99161.13;10339761;28;20099;-57
2021/08/07 05:24:23;;;;;;;;;;;;;;;18.36;71.67;99161.81;10338484;28;19964;-56
2021/08/07 05:29:24;;;;;;;;;;;;;;;18.45;71.40;99158.91;10343330;28;19996;-56
2021/08/07 05:34:26;;;;;;;;;;;;;;;18.52;71.19;99166.00;10340496;28;20068;-57
2021/08/07 05:39:27;;;;;;;;;;;;;;;18.58;70.96;99152.75;10336554;28;19933;-56
2021/08/07 05:44:28;;;;;;;;;;;;;;;18.67;70.81;99152.34;10346489;28;20578;-57
2021/08/07 05:49:30;;;;;;;;;;;;;;;18.66;70.49;99161.50;10353136;28;20008;-56
2021/08/07 05:54:31;;;;;;;;;;;;;;;18.70;70.65;99162.72;10356603;28;19925;-56
2021/08/07 05:59:32;;;;;;;;;;;;;;;18.84;70.64;99166.31;10354713;28;19982;-56
2021/08/07 06:04:34;;;;;;;;;;;;;;;18.92;70.44;99154.53;10349577;28;20026;-56
2021/08/07 06:09:35;;;;;;;;;;;;;;;19.04;70.00;99158.28;10346286;28;19940;-56
2021/08/07 06:14:37;;;;;;;;;;;;;;;19.15;70.30;99148.75;10339948;28;19964;-56
2021/08/07 06:19:38;;;;;;;;;;;;;;;19.18;69.70;99142.94;10344083;28;20371;-57
2021/08/07 06:24:39;;;;;;;;;;;;;;;19.25;69.52;99142.97;10344191;28;19933;-56
2021/08/07 06:29:41;;;;;;;;;;;;;;;19.44;68.55;99141.28;10341043;28;20024;-57
2021/08/07 06:34:42;;;;;;;;;;;;;;;19.62;68.31;99154.13;10329780;28;19983;-56
2021/08/07 06:39:43;;;;;;;;;;;;;;;19.75;67.93;99148.72;10340487;28;19930;-57
2021/08/07 06:44:45;;;;;;;;;;;;;;;19.90;66.96;99155.78;10346840;28;20028;-57
2021/08/07 06:49:46;;;;;;;;;;;;;;;20.09;66.23;99162.19;10339733;28;19968;-57
2021/08/07 06:54:48;;;;;;;;;;;;;;;20.11;64.58;99163.63;10344249;28;20048;-59
2021/08/07 06:59:50;;;;;;;;;;;;;;;20.17;64.14;99169.22;10349914;28;19973;-57
2021/08/07 07:04:52;;;;;;;;;;;;;;;20.28;63.79;99155.03;10342636;28;20035;-58
2021/08/07 07:09:53;;;;;;;;;;;;;;;20.35;63.14;99158.56;10340951;28;20012;-58
2021/08/07 07:14:55;;;;;;;;;;;;;;;20.44;62.84;99149.16;10344583;28;19929;-58
2021/08/07 07:19:57;;;;;;;;;;;;;;;20.59;62.73;99137.25;10346614;28;19934;-57
2021/08/07 07:24:58;;;;;;;;;;;;;;;20.52;62.17;99145.38;10346070;28;20015;-56
2021/08/07 07:29:59;;;;;;;;;;;;;;;20.70;62.41;99154.69;10344376;28;20051;-57
2021/08/07 07:35:02;;;;;;;;;;;;;;;20.88;62.35;99145.84;10347657;28;20067;-56
2021/08/07 07:40:05;;;;;;;;;;;;;;;21.10;61.94;99147.16;10340537;28;19925;-56
2021/08/07 07:45:07;;;;;;;;;;;;;;;21.17;61.05;99139.00;10339830;28;20023;-53
2021/08/07 07:50:09;;;;;;;;;;;;;;;21.18;60.61;99146.91;10345361;28;20375;-55
2021/08/07 07:55:11;;;;;;;;;;;;;;;21.12;60.71;99146.94;10343861;28;20473;-55
2021/08/07 08:00:12;;;;;;;;;;;;;;;21.05;60.34;99140.72;10327240;28;19972;-55
2021/08/07 08:05:13;;;;;;;;;;;;;;;21.00;60.96;99139.53;10344071;28;19957;-56
2021/08/07 08:10:15;;;;;;;;;;;;;;;21.02;61.13;99142.03;10344401;28;20858;-54
2021/08/07 08:15:18;;;;;;;;;;;;;;;20.82;61.55;99142.97;10342649;28;19941;-55
2021/08/07 08:20:19;;;;;;;;;;;;;;;20.98;61.36;99140.78;10342242;28;20012;-55
2021/08/07 08:25:20;;;;;;;;;;;;;;;20.96;60.27;99126.66;10344441;28;20072;-55
2021/08/07 08:30:22;;;;;;;;;;;;;;;21.08;60.42;99133.03;10341588;28;19925;-54
2021/08/07 08:35:24;;;;;;;;;;;;;;;21.07;60.17;99130.53;10335552;28;19926;-54
2021/08/07 08:40:25;;;;;;;;;;;;;;;21.19;60.33;99126.06;10336514;28;20438;-54
2021/08/07 08:45:27;;;;;;;;;;;;;;;21.42;59.88;99124.63;10342586;28;19941;-55
2021/08/07 08:50:28;;;;;;;;;;;;;;;21.89;58.49;99114.19;10333441;28;19932;-55
2021/08/07 08:55:29;;;;;;;;;;;;;;;22.07;57.51;99105.25;10338257;28;19979;-55
2021/08/07 09:00:35;;;;;;;;;;;;;;;22.33;56.77;99120.38;10322128;28;19933;-55
2021/08/07 09:05:37;;;;;;;;;;;;;;;22.80;55.15;99114.31;10340198;28;19933;-57
2021/08/07 09:10:38;;;;;;;;;;;;;;;23.09;54.05;99111.78;10342067;28;20028;-56
2021/08/07 09:15:40;;;;;;;;;;;;;;;23.07;54.21;99111.19;10341116;28;19965;-56
2021/08/07 09:20:45;;;;;;;;;;;;;;;23.50;52.63;99104.66;10347684;28;19933;-57
2021/08/07 09:25:47;;;;;;;;;;;;;;;23.70;51.59;99090.69;10345241;28;20027;-54
2021/08/07 09:30:48;;;;;;;;;;;;;;;23.94;51.55;99096.13;10347175;28;20016;-53
2021/08/07 09:35:49;;;;;;;;;;;;;;;23.96;51.21;99083.97;10351509;28;19940;-55
2021/08/07 09:40:58;;;;;;;;;;;;;;;24.05;49.66;99089.00;10347937;28;20020;-55
2021/08/07 09:46:20;;;;;;;;;;;;;;;23.79;50.38;99085.72;10352736;28;19960;-54
2021/08/07 09:51:27;;;;;;;;;;;;;;;23.32;52.47;99089.31;10329373;28;19936;-55
2021/08/07 09:56:40;;;;;;;;;;;;;;;22.99;53.54;99096.06;10342082;28;20565;-55
2021/08/07 10:01:41;;;;;;;;;;;;;;;22.79;54.64;99080.13;10344582;28;20017;-54
2021/08/07 10:06:44;;;;;;;;;;;;;;;22.79;54.02;99080.13;10348653;28;19987;-56
2021/08/07 10:12:05;;;;;;;;;;;;;;;22.66;54.73;99080.31;10345515;28;20063;-55
2021/08/07 10:17:08;;;;;;;;;;;;;;;22.52;55.53;99085.06;10341319;28;20028;-56
2021/08/07 10:22:11;;;;;;;;;;;;;;;22.38;55.48;99077.16;10346015;28;19929;-55
2021/08/07 10:27:13;;;;;;;;;;;;;;;22.36;55.34;99081.13;10330354;28;20014;-54
2021/08/07 10:32:16;;;;;;;;;;;;;;;22.20;56.41;99083.41;10337997;28;20231;-55
2021/08/07 10:37:18;;;;;;;;;;;;;;;22.04;57.16;99090.25;10344793;28;20043;-54
2021/08/07 10:42:20;;;;;;;;;;;;;;;21.98;57.31;99077.63;10347959;28;19932;-54
2021/08/07 10:47:38;;;;;;;;;;;;;;;22.00;56.62;99067.38;10343684;28;19991;-55
2021/08/07 10:52:40;;;;;;;;;;;;;;;22.19;55.54;99065.47;10324695;28;20008;-54
2021/08/07 10:57:44;;;;;;;;;;;;;;;22.38;55.22;99074.44;10336899;28;19941;-56
2021/08/07 11:02:46;;;;;;;;;;;;;;;22.33;56.01;99076.19;10327736;28;19929;-55
2021/08/07 11:07:48;;;;;;;;;;;;;;;22.10;55.58;99083.13;10342443;28;20027;-57
2021/08/07 11:13:14;;;;;;;;;;;;;;;21.98;55.67;99074.91;10338938;28;20059;-54
2021/08/07 11:18:25;;;;;;;;;;;;;;;21.93;55.54;99061.19;10337172;28;20402;-55
2021/08/07 11:23:34;;;;;;;;;;;;;;;21.77;56.39;99067.22;10336089;28;20013;-55
2021/08/07 11:28:56;;;;;;;;;;;;;;;21.71;55.84;99052.72;10340774;28;19933;-56
2021/08/07 11:34:16;;;;;;;;;;;;;;;21.65;56.76;99056.34;10330213;28;20011;-55
2021/08/07 11:39:17;;;;;;;;;;;;;;;21.67;57.76;99054.22;10325525;28;20748;-54
2021/08/07 11:44:19;;;;;;;;;;;;;;;21.78;58.19;99048.03;10344148;28;20448;-55
2021/08/07 11:49:20;;;;;;;;;;;;;;;21.90;57.62;99037.28;10341828;28;19980;-56
2021/08/07 11:54:22;;;;;;;;;;;;;;;21.91;57.57;99024.59;10343508;28;19979;-55
2021/08/07 11:59:28;;;;;;;;;;;;;;;22.08;56.50;99014.75;10342557;28;19925;-54
2021/08/07 12:04:29;;;;;;;;;;;;;;;22.04;55.79;99008.97;10343552;28;20077;-54
2021/08/07 12:09:31;;;;;;;;;;;;;;;22.00;55.68;99018.59;10342968;28;19980;-55
2021/08/07 12:14:32;;;;;;;;;;;;;;;22.08;55.54;99017.47;10348529;28;20051;-54
2021/08/07 12:19:34;;;;;;;;;;;;;;;21.99;55.56;99024.25;10321585;28;19937;-55
2021/08/07 12:24:35;;;;;;;;;;;;;;;21.98;55.80;99020.72;10341182;28;20390;-54
2021/08/07 12:29:37;;;;;;;;;;;;;;;22.05;54.67;99021.47;10341659;28;20023;-55
2021/08/07 12:34:39;;;;;;;;;;;;;;;22.09;55.17;99021.03;10328205;28;19933;-60
2021/08/07 12:39:42;;;;;;;;;;;;;;;22.25;53.84;99015.78;10345919;28;19926;-56
2021/08/07 12:44:54;;;;;;;;;;;;;;;22.33;53.44;99021.97;10336461;28;19952;-54
2021/08/07 12:49:56;;;;;;;;;;;;;;;22.24;53.83;99011.41;10346665;28;20028;-55
2021/08/07 12:55:03;;;;;;;;;;;;;;;22.12;54.35;99015.97;10353239;28;19925;-55
2021/08/07 13:00:05;;;;;;;;;;;;;;;22.01;54.30;99009.44;10351344;28;20306;-54
2021/08/07 13:05:07;;;;;;;;;;;;;;;22.04;55.21;99002.75;10353563;28;19933;-56
2021/08/07 13:10:22;;;;;;;;;;;;;;;21.99;54.79;99011.56;10336062;28;19940;-55
2021/08/07 13:15:24;;;;;;;;;;;;;;;21.97;55.29;99010.94;10348115;28;19956;-55
2021/08/07 13:20:38;;;;;;;;;;;;;;;21.91;55.53;98986.66;10351634;28;19932;-54
2021/08/07 13:25:40;;;;;;;;;;;;;;;21.81;55.85;98988.03;10349770;28;22154;-59
2021/08/07 13:30:48;;;;;;;;;;;;;;;21.81;56.03;99001.56;10332713;28;19939;-56
2021/08/07 13:35:50;;;;;;;;;;;;;;;21.70;56.19;98988.78;10352955;28;19936;-55
2021/08/07 13:41:02;;;;;;;;;;;;;;;21.77;56.45;98988.69;10348738;28;19929;-56
2021/08/07 13:46:05;;;;;;;;;;;;;;;21.91;56.01;98965.00;10350422;28;19933;-56
2021/08/07 13:51:06;;;;;;;;;;;;;;;22.15;55.89;98968.63;10353722;28;20062;-54
2021/08/07 13:56:07;;;;;;;;;;;;;;;22.10;55.68;98947.63;10336408;28;19930;-55
2021/08/07 14:01:09;;;;;;;;;;;;;;;22.11;55.87;98976.34;10351888;28;19929;-56
2021/08/07 14:06:12;;;;;;;;;;;;;;;22.15;55.63;98969.44;10331736;28;19933;-55
2021/08/07 14:11:14;;;;;;;;;;;;;;;22.21;55.87;98959.56;10331218;28;19925;-54
2021/08/07 14:16:15;;;;;;;;;;;;;;;22.18;55.66;98951.88;10346172;28;20009;-53
2021/08/07 14:21:17;;;;;;;;;;;;;;;22.46;55.51;98948.56;10343867;28;20016;-56
2021/08/07 14:26:18;;;;;;;;;;;;;;;22.65;55.54;98949.28;10347964;28;19925;-55
2021/08/07 14:31:20;;;;;;;;;;;;;;;22.86;54.76;98938.94;10341693;28;19933;-58
2021/08/07 14:36:21;;;;;;;;;;;;;;;22.89;54.54;98920.28;10342585;28;19981;-55
2021/08/07 14:41:23;;;;;;;;;;;;;;;22.94;54.81;98933.16;10352550;28;19925;-55
2021/08/07 14:46:24;;;;;;;;;;;;;;;22.74;55.25;98922.66;10335342;28;19934;-55
2021/08/07 14:51:25;;;;;;;;;;;;;;;22.62;56.53;98921.81;10346538;28;19969;-56
2021/08/07 14:56:27;;;;;;;;;;;;;;;22.34;56.80;98939.56;10345770;28;19975;-55
2021/08/07 15:01:28;;;;;;;;;;;;;;;22.04;59.02;98948.56;10344071;28;19932;-56
2021/08/07 15:06:30;;;;;;;;;;;;;;;21.68;65.83;98990.91;10350812;28;20397;-61
2021/08/07 15:11:31;;;;;;;;;;;;;;;21.40;67.59;98989.50;10350485;28;19925;-55
2021/08/07 15:16:33;;;;;;;;;;;;;;;21.14;69.95;98967.09;10341961;28;19933;-56
2021/08/07 15:21:36;;;;;;;;;;;;;;;21.15;70.93;98979.59;10346337;28;19929;-56
2021/08/07 15:26:37;;;;;;;;;;;;;;;21.00;70.57;98960.16;10346036;28;19931;-56
2021/08/07 15:31:41;;;;;;;;;;;;;;;20.83;71.26;98963.44;10344758;28;26842;-61
2021/08/07 15:36:42;;;;;;;;;;;;;;;20.89;71.49;98964.41;10345161;28;20059;-56
2021/08/07 15:41:43;;;;;;;;;;;;;;;20.68;71.72;98960.25;10342009;28;19984;-55
2021/08/07 15:46:45;;;;;;;;;;;;;;;20.76;71.93;98973.50;10342746;28;19940;-55
2021/08/07 15:51:46;;;;;;;;;;;;;;;20.81;72.40;98984.47;10348150;28;19933;-54
2021/08/07 15:56:47;;;;;;;;;;;;;;;20.70;72.36;98997.88;10342842;28;19926;-55
2021/08/07 16:01:49;;;;;;;;;;;;;;;20.63;72.74;98992.50;10336304;28;19929;-54
2021/08/07 16:06:50;;;;;;;;;;;;;;;20.78;73.35;98979.50;10335140;28;20140;-60
2021/08/07 16:11:52;;;;;;;;;;;;;;;20.88;72.61;98972.75;10335349;28;19935;-55
2021/08/07 16:16:53;;;;;;;;;;;;;;;20.89;71.69;98990.66;10343599;28;19941;-55
2021/08/07 16:21:55;;;;;;;;;;;;;;;20.82;71.75;98980.72;10344928;28;20670;-56
2021/08/07 16:26:57;;;;;;;;;;;;;;;20.74;70.93;98978.28;10345582;28;19936;-55
2021/08/07 16:31:58;;;;;;;;;;;;;;;20.57;72.48;98966.34;10342147;28;20139;-55
2021/08/07 16:37:00;;;;;;;;;;;;;;;20.47;72.97;98956.84;10336693;28;19932;-55
2021/08/07 16:42:01;;;;;;;;;;;;;;;20.37;73.86;98974.59;10339735;28;20139;-57
2021/08/07 16:47:03;;;;;;;;;;;;;;;20.42;73.06;98983.69;10340047;28;19933;-57
2021/08/07 16:52:05;;;;;;;;;;;;;;;20.36;72.90;98992.69;10326379;28;20067;-54
2021/08/07 16:57:07;;;;;;;;;;;;;;;20.38;72.37;98987.06;10347231;28;19933;-56
2021/08/07 17:02:08;;;;;;;;;;;;;;;20.38;72.10;98990.56;10329607;28;20002;-55
2021/08/07 17:07:09;;;;;;;;;;;;;;;20.31;71.83;98981.69;10329494;28;19925;-55
2021/08/07 17:12:11;;;;;;;;;;;;;;;20.30;71.47;98980.03;10339361;28;19961;-62
2021/08/07 17:17:12;;;;;;;;;;;;;;;20.12;71.52;98989.69;10344710;28;20535;-56
2021/08/07 17:22:14;;;;;;;;;;;;;;;20.07;72.16;99004.91;10341094;28;20019;-56
2021/08/07 17:27:15;;;;;;;;;;;;;;;20.03;72.09;98988.31;10329708;28;20377;-55
2021/08/07 17:32:17;;;;;;;;;;;;;;;20.02;71.78;98994.75;10341694;28;19937;-56
2021/08/07 17:37:18;;;;;;;;;;;;;;;19.93;71.39;98996.03;10348331;28;19956;-53
2021/08/07 17:42:19;;;;;;;;;;;;;;;19.72;71.52;98992.56;10347580;28;19925;-53
2021/08/07 17:47:21;;;;;;;;;;;;;;;19.70;71.68;98999.25;10347480;28;22559;-53
2021/08/07 17:52:22;;;;;;;;;;;;;;;19.69;71.73;98998.38;10346238;28;20394;-54
2021/08/07 17:57:24;;;;;;;;;;;;;;;19.69;71.81;99000.28;10346583;28;20663;-53
2021/08/07 18:02:25;;;;;;;;;;;;;;;19.68;72.24;99001.31;10345633;28;19934;-53
2021/08/07 18:07:27;;;;;;;;;;;;;;;19.75;71.94;99012.91;10346332;28;19933;-53
2021/08/07 18:12:28;;;;;;;;;;;;;;;19.72;71.57;99014.16;10340440;28;20395;-53
2021/08/07 18:17:29;;;;;;;;;;;;;;;19.65;71.35;99023.31;10342153;28;19975;-53
2021/08/07 18:22:31;;;;;;;;;;;;;;;19.61;71.83;99015.66;10331787;28;20087;-53
2021/08/07 18:27:32;;;;;;;;;;;;;;;19.58;71.86;99031.47;10340256;28;19925;-54
2021/08/07 18:32:33;;;;;;;;;;;;;;;19.54;71.97;99041.81;10349599;28;20062;-53
2021/08/07 18:37:35;;;;;;;;;;;;;;;19.63;71.25;99042.44;10340567;28;19987;-53
2021/08/07 18:42:37;;;;;;;;;;;;;;;19.63;71.74;99047.84;10329694;28;19932;-53
2021/08/07 18:47:38;;;;;;;;;;;;;;;19.55;71.66;99048.06;10338250;28;20012;-53
2021/08/07 18:52:39;;;;;;;;;;;;;;;19.58;71.11;99067.34;10330119;28;19926;-53
2021/08/07 18:57:41;;;;;;;;;;;;;;;19.63;71.47;99082.91;10341258;28;19932;-53
2021/08/07 19:02:43;;;;;;;;;;;;;;;19.56;71.40;99090.19;10346317;28;20033;-54
2021/08/07 19:07:45;;;;;;;;;;;;;;;19.56;71.59;99095.59;10338900;28;20578;-53
2021/08/07 19:12:47;;;;;;;;;;;;;;;19.59;71.58;99111.38;10329396;28;19945;-53
2021/08/07 19:17:49;;;;;;;;;;;;;;;19.60;71.55;99091.44;10343574;28;19956;-53
2021/08/07 19:22:50;;;;;;;;;;;;;;;19.50;72.05;99085.63;10338546;28;19925;-58
2021/08/07 19:27:53;;;;;;;;;;;;;;;19.37;72.52;99076.53;10344631;28;19928;-53
2021/08/07 19:32:56;;;;;;;;;;;;;;;19.37;72.56;99108.91;10345411;28;19925;-54
2021/08/07 19:37:57;;;;;;;;;;;;;;;19.29;72.93;99121.78;10338209;28;20054;-54
2021/08/07 19:43:00;;;;;;;;;;;;;;;19.29;73.26;99138.81;10326068;28;19930;-53
2021/08/07 19:48:02;;;;;;;;;;;;;;;19.29;73.27;99137.97;10328573;28;20286;-54
2021/08/07 19:53:03;;;;;;;;;;;;;;;19.34;73.07;99147.09;10328199;28;20497;-53
2021/08/07 19:58:07;;;;;;;;;;;;;;;19.32;73.24;99153.72;10321690;28;20371;-54
2021/08/07 20:03:10;;;;;;;;;;;;;;;19.29;73.49;99144.22;10327612;28;19972;-54
2021/08/07 20:08:12;;;;;;;;;;;;;;;19.28;73.48;99137.16;10328694;28;19929;-54
2021/08/07 20:13:13;;;;;;;;;;;;;;;19.23;73.82;99161.19;10327019;28;19960;-54
2021/08/07 20:18:15;;;;;;;;;;;;;;;19.15;74.13;99153.31;10328411;28;20453;-54
2021/08/07 20:23:16;;;;;;;;;;;;;;;19.08;74.16;99167.63;10327842;28;20019;-53
2021/08/07 20:28:18;;;;;;;;;;;;;;;19.21;73.78;99168.69;10325353;28;20519;-54
2021/08/07 20:33:19;;;;;;;;;;;;;;;19.18;73.92;99159.13;10326015;28;19932;-53
2021/08/07 20:38:21;;;;;;;;;;;;;;;19.19;73.60;99168.06;10312586;28;19936;-53
2021/08/07 20:43:22;;;;;;;;;;;;;;;19.13;73.89;99160.81;10328692;28;20403;-54
2021/08/07 20:48:23;;;;;;;;;;;;;;;19.15;73.75;99156.03;10315721;28;19969;-53
2021/08/07 20:53:25;;;;;;;;;;;;;;;19.27;73.52;99178.63;10331725;28;20020;-54
2021/08/07 20:58:26;;;;;;;;;;;;;;;19.30;73.42;99166.63;10328536;28;20002;-53
2021/08/07 21:03:27;;;;;;;;;;;;;;;19.29;73.17;99173.88;10325856;28;19933;-49
2021/08/07 21:08:29;;;;;;;;;;;;;;;19.04;73.62;99173.66;10345709;28;19929;-49
2021/08/07 21:13:30;;;;;;;;;;;;;;;19.02;74.08;99176.53;10337335;28;19964;-47
2021/08/07 21:18:32;;;;;;;;;;;;;;;18.91;74.20;99185.22;10372549;28;20015;-51
2021/08/07 21:23:36;;;;;;;;;;;;;;;18.85;74.54;99186.00;10372152;28;19925;-51
2021/08/07 21:28:38;;;;;;;;;;;;;;;18.91;74.20;99206.78;10363208;28;19933;-48
2021/08/07 21:33:39;;;;;;;;;;;;;;;18.84;74.33;99187.88;10376290;28;19925;-48
2021/08/07 21:38:41;;;;;;;;;;;;;;;18.87;74.31;99194.75;10381845;28;19929;-50
2021/08/07 21:43:42;;;;;;;;;;;;;;;18.75;74.84;99197.19;10357988;28;19964;-49
2021/08/07 21:48:43;;;;;;;;;;;;;;;18.78;74.60;99196.78;10373547;28;19940;-51
2021/08/07 21:53:45;;;;;;;;;;;;;;;18.66;75.03;99188.44;10365400;28;19940;-46
2021/08/07 21:58:46;;;;;;;;;;;;;;;18.57;75.45;99200.44;10363919;28;20338;-50
2021/08/07 22:03:50;;;;;;;;;;;;;;;18.54;75.69;99184.69;10380975;28;19933;-49
2021/08/07 22:08:51;;;;;;;;;;;;;;;18.55;76.16;99215.97;10360566;28;19936;-50
2021/08/07 22:13:53;;;;;;;;;;;;;;;18.63;75.49;99218.50;10371650;28;19959;-51
2021/08/07 22:18:54;;;;;;;;;;;;;;;18.49;76.26;99225.69;10362869;28;19933;-49
2021/08/07 22:23:56;;;;;;;;;;;;;;;18.59;75.94;99229.88;10366768;28;20465;-49
2021/08/07 22:28:57;;;;;;;;;;;;;;;18.48;76.73;99228.56;10365196;28;19975;-47
2021/08/07 22:33:58;;;;;;;;;;;;;;;18.39;77.17;99244.09;10372512;28;20654;-50
2021/08/07 22:39:00;;;;;;;;;;;;;;;18.43;76.97;99252.59;10375095;28;19937;-52
2021/08/07 22:44:01;;;;;;;;;;;;;;;18.40;77.27;99253.00;10365674;28;20403;-47
2021/08/07 22:49:02;;;;;;;;;;;;;;;18.43;76.87;99264.19;10369055;28;20062;-49
2021/08/07 22:54:04;;;;;;;;;;;;;;;18.43;77.26;99258.81;10355355;28;19934;-48
2021/08/07 22:59:05;;;;;;;;;;;;;;;18.42;77.04;99251.78;10362596;28;19932;-47
2021/08/07 23:04:06;;;;;;;;;;;;;;;18.30;77.70;99253.34;10366253;28;19929;-47
2021/08/07 23:09:08;;;;;;;;;;;;;;;18.23;78.21;99242.53;10366976;28;19957;-46
2021/08/07 23:14:09;;;;;;;;;;;;;;;18.11;78.74;99244.94;10364110;28;19995;-48
2021/08/07 23:19:11;;;;;;;;;;;;;;;17.98;79.69;99243.00;10367986;28;19981;-47
2021/08/07 23:24:12;;;;;;;;;;;;;;;18.02;79.64;99241.56;10360464;28;19939;-51
2021/08/07 23:29:14;;;;;;;;;;;;;;;17.96;80.04;99252.31;10363504;28;20410;-47
2021/08/07 23:34:15;;;;;;;;;;;;;;;17.89;80.47;99262.16;10365816;28;19944;-51
2021/08/07 23:39:16;;;;;;;;;;;;;;;17.83;81.01;99269.16;10369980;28;20441;-50
2021/08/07 23:44:18;;;;;;;;;;;;;;;17.87;80.81;99269.59;10362393;28;19979;-51
2021/08/07 23:49:19;;;;;;;;;;;;;;;17.81;81.49;99282.81;10360319;28;19925;-50
2021/08/07 23:54:21;;;;;;;;;;;;;;;17.79;81.77;99279.47;10363945;28;19937;-51
2021/08/07 23:59:22;;;;;;;;;;;;;;;17.66;82.35;99282.88;10367504;28;19925;-47
